Hastings Natural History Reservation, California Weather observations

Data are for 10 minute period ending at time listed.
 Day   Time   Solar   Ave.   Ave.  Ave.  Vector  Max.   Baro.   Total    
  of    of     Rad.   Air    Rel.  Wind   Wind   Wind  Press.  Precip.   
Year   Day            Temp.  Hum.  Speed  Dir.   Gust                    
2016   (PST)  Kw/m2    F      %     mph   deg.    mph    mb.     in.     
-------------------------------------------------------------------------
 268   21:00   0.00   57.0    57    0.5   217     2.0   955.9    0.00 
 268   21:10   0.00   57.1    58    0.2   149     1.3   955.9    0.00 
 268   21:20   0.00   56.8    58    0.6   108     2.5   955.9    0.00 
 268   21:30   0.00   56.4    58    0.4   295     1.8   955.9    0.00 
 268   21:40   0.00   56.3    59    0.4    90     2.0   956.0    0.00 
 268   21:50   0.00   56.3    59    0.1    88     1.2   956.0    0.00 
 268   22:00   0.00   56.2    59    0.6    99     3.8   955.9    0.00 
 268   22:10   0.00   56.3    59    0.6    86     3.1   955.8    0.00 
 268   22:20   0.00   56.3    59    0.8    55     4.8   955.9    0.00 
 268   22:30   0.00   55.9    60    0.4    25     1.3   956.0    0.00 
 268   22:40   0.00   55.7    60    0.7    65     3.2   956.0    0.00 
 268   22:50   0.00   56.2    60    1.4    64     4.0   955.9    0.00 
 268   23:00   0.00   56.9    59    1.5    76     3.4   956.0    0.00 
 268   23:10   0.00   60.6    51    2.6    72     4.5   956.0    0.00 
 268   23:20   0.00   63.7    44    3.6    71     5.6   955.9    0.00 
 268   23:30   0.00   65.2    42    3.5    74     6.1   955.9    0.00 
 268   23:40   0.00   63.2    45    1.1    73     4.5   955.9    0.00 
 268   23:50   0.00   58.3    54    0.2   247     1.3   955.8    0.00 
 269    0:00   0.00   57.3    55    1.0    58     2.3   955.8    0.00 
 269    0:10   0.00   57.5    54    0.8    75     2.8   955.8    0.00 
 269    0:20   0.00   56.7    55    0.8    52     2.6   955.7    0.00 
 269    0:30   0.00   56.7    54    1.2    55     3.7   955.7    0.00 
 269    0:40   0.00   57.4    52    1.8    71     6.1   955.7    0.00 
 269    0:50   0.00   56.4    54    0.7    85     4.2   955.7    0.00 
 269    1:00   0.00   55.8    55    0.4    60     2.0   955.6    0.00 
 269    1:10   0.00   55.5    55    0.6    44     1.5   955.6    0.00 
 269    1:20   0.00   55.5    55    0.8    58     2.3   955.6    0.00 
 269    1:30   0.00   55.0    56    0.3   312     1.1   955.6    0.00 
 269    1:40   0.00   54.8    56    0.1    67     0.9   955.6    0.00 
 269    1:50   0.00   54.4    56    0.2    53     1.5   955.5    0.00 
 269    2:00   0.00   54.3    56    0.1   112     0.7   955.3    0.00 
 269    2:10   0.00   54.2    56    0.9    85     2.5   955.2    0.00 
 269    2:20   0.00   54.0    56    0.7   125     3.1   955.0    0.00 
 269    2:30   0.00   53.7    56    0.8    73     3.9   954.9    0.00 
 269    2:40   0.00   53.3    56    0.2   320     0.9   954.9    0.00 
 269    2:50   0.00   53.4    56    0.4   154     1.3   954.7    0.00 
 269    3:00   0.00   53.4    55    0.7    84     3.1   954.6    0.00 
 269    3:10   0.00   53.4    55    0.7    59     2.0   954.6    0.00 
 269    3:20   0.00   53.3    55    0.0   279     0.8   954.5    0.00 
 269    3:30   0.00   53.5    53    0.1    58     1.0   954.5    0.00 
 269    3:40   0.00   53.5    53    0.0    36     1.1   954.5    0.00 
 269    3:50   0.00   53.2    53    0.1   238     1.0   954.3    0.00 
 269    4:00   0.00   52.8    54    0.6    46     1.8   954.3    0.00 
 269    4:10   0.00   52.9    53    0.1    60     1.3   954.4    0.00 
 269    4:20   0.00   52.9    52    1.3   110     5.8   954.5    0.00 
 269    4:30   0.00   52.8    52    1.0   102     4.2   954.5    0.00 
 269    4:40   0.00   52.6    52    0.5   117     3.2   954.6    0.00 
 269    4:50   0.00   52.2    52    0.4   231     1.5   954.6    0.00 
 269    5:00   0.00   52.8    50    0.4    76     1.5   954.5    0.00 
 269    5:10   0.00   54.0    47    0.2   125     0.8   954.4    0.00 
 269    5:20   0.00   54.9    45    0.8   141     2.8   954.4    0.00 
 269    5:30   0.00   54.5    46    0.1   192     1.2   954.4    0.00 
 269    5:40   0.00   53.7    46    0.0    16     0.8   954.4    0.00 
 269    5:50   0.00   53.3    47    0.1   189     1.2   954.6    0.00 
 269    6:00   0.00   53.0    48    0.9    76     3.1   954.7    0.00 
 269    6:10   0.00   58.6    39    1.6    58     3.1   954.7    0.00 
 269    6:20   0.00   62.7    34    1.9    69     4.7   954.7    0.00 
 269    6:30   0.00   64.5    32    1.3    74     3.7   954.7    0.00 
 269    6:40   0.00   65.5    32    2.1    61     5.1   954.8    0.00 
 269    6:50   0.01   65.7    31    2.3    62     5.6   954.9    0.00 
 269    7:00   0.01   65.7    31    2.0    68     3.7   954.9    0.00 
 269    7:10   0.01   64.9    32    1.7    68     3.9   954.9    0.00 
 269    7:20   0.01   65.1    33    1.8    50     3.1   955.0    0.00 
 269    7:30   0.01   65.8    32    1.5    42     3.1   955.0    0.00 
 269    7:40   0.01   66.4    32    1.7    45     5.9   955.0    0.00 
 269    7:50   0.01   67.8    31    1.7    23     4.4   955.0    0.00 
 269    8:00   0.18   70.1    30    1.4    19     4.0   955.0    0.00 
 269    8:10   0.30   73.1    27    1.4   359     4.6   954.9    0.00 
 269    8:20   0.32   76.1    25    1.7   328     3.6   954.9    0.00 
 269    8:30   0.36   77.4    23    2.4   275     6.7   954.9    0.00 
 269    8:40   0.38   78.7    22    2.9   268     8.0   954.9    0.00 
 269    8:50   0.42   79.9    21    2.7   265     7.5   954.9    0.00 
 269    9:00   0.44   80.2    20    4.4   255     8.6   954.9    0.00 
 269    9:10   0.29   80.6    19    4.3   260     8.6   955.1    0.00 
 269    9:20   0.20   81.4    19    4.4   260     8.2   955.2    0.00 
 269    9:30   0.36   82.0    19    3.4   260     7.1   955.3    0.00 
 269    9:40   0.54   82.8    18    3.2   263     7.7   955.2    0.00 
 269    9:50   0.57   83.8    17    4.1   256     8.0   955.1    0.00 
 269   10:00   0.59   85.0    16    3.7   258     7.3   955.0    0.00 
 269   10:10   0.61   86.1    15    2.8   263     5.8   955.0    0.00 
 269   10:20   0.59   87.2    14    2.1   285     5.9   955.0    0.00 
 269   10:30   0.63   89.2    12    1.8   292     5.0   955.1    0.00 
 269   10:40   0.65   90.5    11    2.1   272     5.7   955.1    0.00 
 269   10:50   0.65   91.6    11    3.2   243     7.1   955.1    0.00 
 269   11:00   0.65   90.2    12    4.4   235     8.0   955.1    0.00 
 269   11:10   0.66   91.2    11    2.2   262     8.6   955.0    0.00 
 269   11:20   0.67   92.4    10    3.8   255    14.2   954.9    0.00 
 269   11:30   0.68   92.9     8    7.7   240    14.7   954.8    0.00 
 269   11:40   0.68   93.7     8    5.2   244    10.1   954.8    0.00 
 269   11:50   0.68   93.7     8    4.8   246    13.4   954.7    0.00 
 269   12:00   0.58   93.2     7    5.7   240    13.7   954.6    0.00 
 269   12:10   0.37   92.5     7    6.4   246    14.5   954.7    0.00 
 269   12:20   0.29   91.5     7    5.5   226    13.6   954.6    0.00 
 269   12:30   0.33   91.3     7    5.6   238    12.6   954.6    0.00 
 269   12:40   0.43   91.7     7    4.3   247     9.6   954.6    0.00 
 269   12:50   0.34   92.0     8    5.0   240    11.5   954.5    0.00 
 269   13:00   0.36   92.2     7    3.3   242     7.0   954.5    0.00 
 269   13:10   0.41   92.7     7    3.2   239     7.9   954.4    0.00 
 269   13:20   0.36   92.3     7    5.0   248     9.4   954.3    0.00 
 269   13:30   0.41   92.9     7    4.3   250     8.0   954.2    0.00 
 269   13:40   0.40   93.6     7    3.3   250     7.2   954.2    0.00 
 269   13:50   0.44   93.3     7    4.8   236     9.0   954.1    0.00 
 269   14:00   0.38   93.0     7    5.4   246     9.3   954.1    0.00 
 269   14:10   0.42   92.4    11    4.3   249     9.0   954.1    0.00 
 269   14:20   0.46   91.7    14    3.5   248     9.4   954.1    0.00 
 269   14:30   0.40   91.5    15    3.4   248    10.5   954.1    0.00 
 269   14:40   0.39   90.9    16    2.8   241    10.9   954.0    0.00 
 269   14:50   0.39   90.4    17    2.8   247     7.0   954.0    0.00 
 269   15:00   0.35   89.8    17    3.2   252     9.1   954.0    0.00 
 269   15:10   0.33   88.4    18    3.7   249    10.6   954.0    0.00 
 269   15:20   0.33   88.2    18    2.6   256     5.8   954.0    0.00 
 269   15:30   0.35   88.1    18    2.9   248     8.3   954.0    0.00 
 269   15:40   0.33   88.4    18    3.0   251     7.5   953.9    0.00 
 269   15:50   0.31   87.6    18    3.5   242     8.9   953.9    0.00 
 269   16:00   0.29   87.1    18    2.9   246     6.5   953.8    0.00 
 269   16:10   0.24   87.3    18    2.1   294     6.3   953.8    0.00 
 269   16:20   0.18   86.7    19    2.9   270     6.3   953.8    0.00 
 269   16:30   0.14   85.5    19    2.8   247     6.0   953.8    0.00 
 269   16:40   0.13   84.9    20    2.7   238     5.2   953.8    0.00 
 269   16:50   0.13   84.7    20    2.0   235     4.2   953.8    0.00 
 269   17:00   0.15   84.5    21    2.6   243     4.5   953.8    0.00 
 269   17:10   0.13   84.4    20    2.7   244     5.3   953.8    0.00 
 269   17:20   0.10   83.9    21    2.2   243     5.1   953.8    0.00 
 269   17:30   0.07   83.2    22    2.0   241     5.4   953.8    0.00 
 269   17:40   0.02   81.7    23    0.5   236     2.2   953.7    0.00 
 269   17:50   0.01   78.7    26    0.9    53     1.8   953.5    0.00 
 269   18:00   0.00   75.3    28    1.4    61     2.4   953.5    0.00 
 269   18:10   0.00   73.8    29    2.2    62     3.4   953.5    0.00 
 269   18:20   0.00   73.0    29    2.1    72     4.5   953.5    0.00 
 269   18:30   0.00   70.7    31    0.2    41     1.5   953.5    0.00 
 269   18:40   0.00   69.3    33    0.5    67     2.1   953.6    0.00 
 269   18:50   0.00   68.0    34    1.1    64     2.7   953.6    0.00 
 269   19:00   0.00   67.3    34    1.5    77     3.5   953.7    0.00 
 269   19:10   0.00   68.0    33    2.1    92     3.7   953.8    0.00 
 269   19:20   0.00   69.4    32    2.0   106     4.1   953.9    0.00 
 269   19:30   0.00   71.8    29    2.6    90     4.2   954.0    0.00 
 269   19:40   0.00   70.5    30    2.1    70     4.4   954.0    0.00 
 269   19:50   0.00   70.3    30    2.3    77     4.5   954.0    0.00 
 269   20:00   0.00   70.8    29    1.8   104     3.6   954.1    0.00 
 269   20:10   0.00   69.2    31    2.1    83     4.9   954.2    0.00 
 269   20:20   0.00   65.1    36    0.5   217     1.4   954.2    0.00 
 269   20:30   0.00   63.5    37    0.1    57     1.5   954.3    0.00 
 269   20:40   0.00   63.1    38    0.1   204     1.2   954.4    0.00 
 269   20:50   0.00   62.3    38    0.1   251     1.1   954.4    0.00 

Return to Hastings Natural History Reservation graphs page.


Western Regional Climate Center,wrcc@dri.edu